Time;durP1;ratioP1;P1;durP2;ratioP2;P2;SDS_P1;SDS_P2;PMS_P1;PMS_P2;Temp;Humidity;BMP_temperature;BMP_pressure;BME280_temperature;BME280_humidity;BME280_pressure;Samples;Min_cycle;Max_cycle;Signal;HPM_P1;HPM_P2
2022/12/20 00:00:51;;;;;;;;;;;1.30;99.90;;;0.27;100.00;96364.53;10557956;28;2381;-70
2022/12/20 00:06:04;;;;;;;;;;;1.30;99.90;;;0.25;100.00;96363.88;10564191;28;2415;-75
2022/12/20 00:11:07;;;;;;;;;;;1.30;99.90;;;0.34;100.00;96364.56;10561406;28;2272;-69
2022/12/20 00:16:09;;;;;;;;;;;1.40;99.90;;;0.32;100.00;96356.84;10564409;28;2339;-69
2022/12/20 00:21:12;;;;;;;;;;;1.40;99.90;;;0.35;100.00;96372.28;10556721;28;2343;-70
2022/12/20 00:26:14;;;;;;;;;;;1.40;99.90;;;0.36;100.00;96358.06;10557684;28;1985;-70
2022/12/20 00:31:17;;;;;;;;;;;1.40;99.90;;;0.40;100.00;96350.56;10561204;28;1992;-69
2022/12/20 00:36:20;;;;;;;;;;;1.40;99.90;;;0.34;100.00;96344.22;10560375;28;2335;-72
2022/12/20 00:41:23;;;;;;;;;;;1.40;99.90;;;0.40;100.00;96355.84;10562148;28;2660;-71
2022/12/20 00:46:25;;;;;;;;;;;1.40;99.90;;;0.38;100.00;96339.34;10564062;28;2363;-71
2022/12/20 00:51:28;;;;;;;;;;;1.50;99.90;;;0.42;100.00;96341.41;10559062;28;1976;-71
2022/12/20 00:56:30;;;;;;;;;;;1.40;99.90;;;0.46;100.00;96342.66;10560750;28;2017;-72
2022/12/20 01:01:34;;;;;;;;;;;1.50;99.90;;;0.48;100.00;96350.38;10562065;28;2450;-71
2022/12/20 01:06:37;;;;;;;;;;;1.50;99.90;;;0.53;100.00;96353.28;10561859;28;2346;-71
2022/12/20 01:11:40;;;;;;;;;;;1.50;99.90;;;0.60;100.00;96348.81;10563612;27;1938;-70
2022/12/20 01:16:42;;;;;;;;;;;1.60;99.90;;;0.60;100.00;96342.72;10565325;28;2375;-70
2022/12/20 01:21:45;;;;;;;;;;;1.60;99.90;;;0.64;100.00;96343.97;10560806;28;2299;-73
2022/12/20 01:26:48;;;;;;;;;;;1.50;99.90;;;0.63;100.00;96347.59;10565161;28;1977;-77
2022/12/20 01:31:52;;;;;;;;;;;1.60;99.90;;;0.61;100.00;96344.34;10554420;28;2313;-77
2022/12/20 01:36:55;;;;;;;;;;;1.60;99.90;;;0.60;100.00;96326.84;10561692;28;2469;-70
2022/12/20 01:41:58;;;;;;;;;;;1.60;99.90;;;0.69;100.00;96325.63;10565088;28;2339;-70
2022/12/20 01:47:00;;;;;;;;;;;1.70;99.90;;;0.70;100.00;96332.56;10564394;28;2327;-71
2022/12/20 01:52:03;;;;;;;;;;;1.60;99.90;;;0.73;100.00;96332.19;10565206;28;2264;-70
2022/12/20 01:57:06;;;;;;;;;;;1.70;99.90;;;0.75;100.00;96335.44;10573198;28;2359;-69
2022/12/20 02:02:08;;;;;;;;;;;1.70;99.90;;;0.78;100.00;96321.81;10553838;27;1946;-69
2022/12/20 02:07:12;;;;;;;;;;;1.70;99.90;;;0.83;100.00;96322.06;10570915;27;1930;-71
2022/12/20 02:12:15;;;;;;;;;;;1.80;99.90;;;0.87;100.00;96322.44;10567172;27;2298;-70
2022/12/20 02:17:18;;;;;;;;;;;1.80;99.90;;;0.94;100.00;96320.63;10566661;28;2464;-70
2022/12/20 02:22:20;;;;;;;;;;;1.90;99.90;;;1.04;100.00;96315.78;10566075;28;2278;-70
2022/12/20 02:27:23;;;;;;;;;;;1.90;99.90;;;1.03;100.00;96322.91;10548316;28;2306;-70
2022/12/20 02:32:27;;;;;;;;;;;2.00;99.90;;;1.01;100.00;96319.63;10569140;28;2364;-73
2022/12/20 02:37:32;;;;;;;;;;;2.10;99.90;;;1.06;100.00;96322.50;10556238;28;2368;-70
2022/12/20 02:42:34;;;;;;;;;;;2.00;99.90;;;1.06;100.00;96319.84;10567830;28;2299;-71
2022/12/20 02:47:37;;;;;;;;;;;2.00;99.90;;;1.02;100.00;96313.34;10568462;28;2310;-69
2022/12/20 02:52:40;;;;;;;;;;;2.00;99.90;;;1.16;100.00;96311.53;10559289;28;2349;-70
2022/12/20 02:57:44;;;;;;;;;;;2.10;99.90;;;1.17;100.00;96291.16;10564687;28;2284;-70
2022/12/20 03:08:07;;;;;;;;;;;2.20;99.90;;;1.20;100.00;96299.50;10563666;28;1949;-71
2022/12/20 03:13:10;;;;;;;;;;;2.20;99.90;;;1.29;100.00;96284.25;10562573;28;2344;-71
2022/12/20 03:18:13;;;;;;;;;;;2.20;99.90;;;1.25;100.00;96291.78;10568029;28;2435;-71
2022/12/20 03:23:16;;;;;;;;;;;2.20;99.90;;;1.29;100.00;96305.44;10559727;28;2372;-71
2022/12/20 03:28:18;;;;;;;;;;;2.20;99.90;;;1.32;100.00;96310.31;10566029;28;2342;-72
2022/12/20 03:33:21;;;;;;;;;;;2.20;99.90;;;1.29;100.00;96292.19;10563367;28;2350;-71
2022/12/20 03:38:24;;;;;;;;;;;2.30;99.90;;;1.38;100.00;96276.91;10558338;28;2342;-71
2022/12/20 03:43:27;;;;;;;;;;;2.30;99.90;;;1.45;100.00;96275.88;10566330;28;2371;-72
2022/12/20 03:48:29;;;;;;;;;;;2.30;99.90;;;1.48;100.00;96253.47;10563944;28;2330;-72
2022/12/20 03:53:32;;;;;;;;;;;2.50;99.90;;;1.67;100.00;96243.88;10560802;28;2405;-70
2022/12/20 03:58:34;;;;;;;;;;;2.60;99.90;;;1.67;100.00;96249.19;10564327;28;2340;-70
2022/12/20 04:03:37;;;;;;;;;;;2.50;99.90;;;1.60;100.00;96255.31;10560515;28;1996;-72
2022/12/20 04:08:40;;;;;;;;;;;2.60;99.90;;;1.61;100.00;96258.78;10567784;28;2346;-71
2022/12/20 04:13:43;;;;;;;;;;;2.60;99.90;;;1.65;100.00;96272.41;10559384;28;2751;-72
2022/12/20 04:18:45;;;;;;;;;;;2.60;99.90;;;1.71;100.00;96267.09;10545976;28;1967;-71
2022/12/20 04:23:48;;;;;;;;;;;2.60;99.90;;;1.67;100.00;96270.41;10558619;28;2390;-70
2022/12/20 04:28:50;;;;;;;;;;;2.90;99.90;;;1.68;100.00;96267.53;10561666;28;2276;-71
2022/12/20 04:33:53;;;;;;;;;;;2.60;99.90;;;1.71;100.00;96263.63;10555898;28;2316;-72
2022/12/20 04:38:56;;;;;;;;;;;2.70;99.90;;;1.76;100.00;96258.53;10560798;28;2338;-71
2022/12/20 04:44:02;;;;;;;;;;;2.60;99.90;;;1.75;100.00;96257.72;10563800;28;2311;-70
2022/12/20 04:49:04;;;;;;;;;;;2.50;99.90;;;1.63;100.00;96249.59;10547222;28;2366;-71
2022/12/20 04:54:08;;;;;;;;;;;2.80;99.90;;;1.58;100.00;96241.44;10558267;28;2518;-73
2022/12/20 04:59:11;;;;;;;;;;;2.80;99.90;;;1.59;100.00;96243.09;10564857;28;2361;-76
2022/12/20 05:04:14;;;;;;;;;;;2.80;99.90;;;1.59;100.00;96240.44;10564823;28;2305;-72
2022/12/20 05:09:16;;;;;;;;;;;2.80;99.90;;;1.58;100.00;96230.03;10569454;28;2403;-77
2022/12/20 05:14:19;;;;;;;;;;;2.70;99.90;;;1.66;100.00;96215.75;10549974;28;2331;-74
2022/12/20 05:19:21;;;;;;;;;;;2.80;99.90;;;1.74;100.00;96215.53;10558515;28;2301;-71
2022/12/20 05:29:51;;;;;;;;;;;2.80;99.90;;;1.61;100.00;96203.94;10471196;28;2065;-71
2022/12/20 05:34:54;;;;;;;;;;;2.70;99.90;;;1.66;100.00;96205.16;10572744;28;2326;-72
2022/12/20 05:39:57;;;;;;;;;;;2.70;99.90;;;1.68;100.00;96197.81;10561370;28;2314;-70
2022/12/20 05:45:00;;;;;;;;;;;2.70;99.90;;;1.71;100.00;96186.78;10562382;28;2372;-71
2022/12/20 05:50:03;;;;;;;;;;;2.80;99.90;;;1.55;100.00;96175.63;10563252;28;2464;-71
2022/12/20 05:55:06;;;;;;;;;;;2.70;99.90;;;1.53;100.00;96180.31;10563243;27;2303;-73
2022/12/20 06:00:08;;;;;;;;;;;2.70;99.90;;;1.45;100.00;96161.97;10556306;28;2145;-71
2022/12/20 06:05:11;;;;;;;;;;;2.60;99.90;;;1.33;100.00;96188.28;10558673;28;2247;-71
2022/12/20 06:10:14;;;;;;;;;;;2.50;99.90;;;1.33;100.00;96184.81;10584812;27;1905;-71
2022/12/20 06:15:17;;;;;;;;;;;2.40;99.90;;;1.34;100.00;96187.28;10566642;28;2338;-72
2022/12/20 06:20:19;;;;;;;;;;;2.40;99.90;;;1.44;100.00;96176.25;10566257;28;2338;-71
2022/12/20 06:25:22;;;;;;;;;;;2.40;99.90;;;1.54;100.00;96176.66;10562805;27;2277;-71
2022/12/20 06:30:25;;;;;;;;;;;2.50;99.90;;;1.65;100.00;96177.00;10565880;27;2358;-72
2022/12/20 06:35:35;;;;;;;;;;;2.60;99.90;;;1.85;100.00;96177.78;10567784;28;2347;-72
2022/12/20 06:40:37;;;;;;;;;;;2.80;99.90;;;1.85;100.00;96185.75;10563215;28;1962;-72
2022/12/20 06:45:40;;;;;;;;;;;2.80;99.90;;;1.91;100.00;96182.25;10564289;28;2358;-72
2022/12/20 06:50:44;;;;;;;;;;;2.90;99.90;;;1.90;100.00;96180.59;10565223;28;1886;-70
2022/12/20 06:55:53;;;;;;;;;;;2.90;99.90;;;1.90;100.00;96175.31;10565918;28;2364;-69
2022/12/20 07:00:56;;;;;;;;;;;2.90;99.90;;;1.93;100.00;96174.91;10561000;28;2399;-70
2022/12/20 07:05:59;;;;;;;;;;;3.00;99.90;;;1.98;100.00;96166.34;10561731;28;1933;-69
2022/12/20 07:11:01;;;;;;;;;;;3.00;99.90;;;2.05;100.00;96162.63;10563053;28;1940;-69
2022/12/20 07:16:04;;;;;;;;;;;3.00;99.90;;;2.05;100.00;96157.31;10558723;28;2295;-70
2022/12/20 07:21:07;;;;;;;;;;;3.00;99.90;;;1.98;100.00;96161.84;10559095;28;2344;-70
2022/12/20 07:26:11;;;;;;;;;;;2.70;99.90;;;2.24;100.00;96168.88;10562747;28;2355;-75
2022/12/20 07:31:15;;;;;;;;;;;;;;;2.32;100.00;96162.50;10555828;28;2262;-74
2022/12/20 07:36:18;;;;;;;;;;;3.20;99.90;;;2.40;100.00;96154.28;10561744;28;2332;-75
2022/12/20 07:41:21;;;;;;;;;;;;;;;2.49;100.00;96163.63;10561764;27;2369;-74
2022/12/20 07:46:24;;;;;;;;;;;;;;;2.60;100.00;96173.53;10559478;27;2345;-74
2022/12/20 07:51:28;;;;;;;;;;;;;;;2.72;100.00;96173.69;10566406;27;2046;-73
2022/12/20 07:56:41;;;;;;;;;;;;;;;2.83;100.00;96186.28;10571834;27;2366;-73
2022/12/20 08:01:54;;;;;;;;;;;;;;;3.03;100.00;96187.97;10571024;28;2356;-76
2022/12/20 08:07:14;;;;;;;;;;;;;;;3.16;100.00;96191.34;10565268;27;2284;-74
2022/12/20 08:12:27;;;;;;;;;;;;;;;3.22;100.00;96171.88;10556174;28;2350;-72
2022/12/20 08:17:41;;;;;;;;;;;;;;;3.40;100.00;96168.44;10565498;28;2277;-72
2022/12/20 08:22:54;;;;;;;;;;;;;;;3.51;100.00;96174.91;10573897;27;2347;-76
2022/12/20 08:28:06;;;;;;;;;;;4.20;99.90;;;3.80;100.00;96171.53;10578259;27;2272;-78
2022/12/20 08:33:19;;;;;;;;;;;4.40;99.90;;;3.77;100.00;96145.38;10548621;28;2352;-76
2022/12/20 08:38:31;;;;;;;;;;;4.60;99.90;;;3.99;100.00;96151.06;10577087;27;2390;-74
2022/12/20 08:43:44;;;;;;;;;;;4.70;99.90;;;4.18;100.00;96153.69;10572766;27;2300;-73
2022/12/20 08:48:57;;;;;;;;;;;4.90;99.90;;;4.34;100.00;96164.56;10572432;27;2298;-73
2022/12/20 08:54:09;;;;;;;;;;;5.00;99.90;;;4.31;100.00;96162.31;10569703;28;2490;-77
2022/12/20 08:59:22;;;;;;;;;;;5.10;99.90;;;4.48;100.00;96162.53;10543962;28;2032;-74
2022/12/20 09:04:35;;;;;;;;;;;5.10;99.90;;;4.56;100.00;96148.88;10568185;27;8001;-74
2022/12/20 09:09:38;;;;;;;;;;;5.20;99.90;;;4.71;100.00;96145.84;10573395;27;8311;-72
2022/12/20 09:14:41;;;;;;;;;;;5.30;99.90;;;4.97;100.00;96133.97;10574967;27;2890;-74
2022/12/20 09:19:44;;;;;;;;;;;5.70;99.90;;;5.14;100.00;96118.09;10568796;28;2962;-75
2022/12/20 09:24:48;;;;;;;;;;;;;;;5.43;100.00;96117.19;10571650;27;2138;-76
2022/12/20 09:29:50;;;;;;;;;;;5.90;99.90;;;5.49;100.00;96109.31;10570202;27;2280;-76
2022/12/20 09:34:53;;;;;;;;;;;6.20;99.90;;;5.59;100.00;96115.66;10583509;27;2358;-74
2022/12/20 09:39:56;;;;;;;;;;;6.30;99.90;;;5.80;100.00;96100.09;10575280;27;2277;-75
2022/12/20 09:44:59;;;;;;;;;;;6.30;99.90;;;5.80;100.00;96092.91;10566369;27;2335;-75
2022/12/20 09:50:02;;;;;;;;;;;;;;;5.90;100.00;96086.94;10574349;27;2406;-75
2022/12/20 09:55:05;;;;;;;;;;;;;;;5.89;100.00;96083.47;10565296;27;2377;-76
2022/12/20 10:00:09;;;;;;;;;;;;;;;6.14;100.00;96079.72;10573246;27;1875;-76
2022/12/20 10:05:11;;;;;;;;;;;6.70;99.90;;;6.33;100.00;96070.47;10565879;27;2541;-75
2022/12/20 10:10:14;;;;;;;;;;;6.80;99.90;;;6.59;100.00;96070.91;10576170;27;2341;-78
2022/12/20 10:15:17;;;;;;;;;;;7.00;99.90;;;6.42;100.00;96061.00;10575823;28;3284;-78
2022/12/20 10:20:19;;;;;;;;;;;7.20;99.90;;;6.47;100.00;96065.63;10549242;28;7944;-74
2022/12/20 10:25:23;;;;;;;;;;;7.20;99.90;;;6.74;100.00;96055.13;10576754;27;2302;-75
2022/12/20 10:30:29;;;;;;;;;;;7.40;99.90;;;6.95;100.00;96054.44;10568554;28;7951;-75
2022/12/20 10:35:31;;;;;;;;;;;7.50;99.90;;;7.09;100.00;96067.47;10567213;27;2902;-75
2022/12/20 10:40:34;;;;;;;;;;;7.60;99.90;;;7.13;100.00;96052.56;10559997;27;2350;-73
2022/12/20 10:45:57;;;;;;;;;;;7.60;99.90;;;7.40;100.00;96044.66;10547888;28;2295;-75
2022/12/20 10:51:01;;;;;;;;;;;7.70;99.90;;;7.63;100.00;96022.19;10558136;28;1993;-76
2022/12/20 10:56:14;;;;;;;;;;;8.00;99.90;;;7.74;100.00;96014.06;10553485;28;5530;-77
2022/12/20 11:01:27;;;;;;;;;;;8.00;99.90;;;7.82;100.00;96004.78;10557876;27;2394;-78
2022/12/20 11:06:40;;;;;;;;;;;8.20;99.90;;;7.67;100.00;95996.56;10558759;27;2299;-78
2022/12/20 11:11:53;;;;;;;;;;;8.20;99.90;;;7.98;100.00;95982.47;10556209;28;2415;-77
2022/12/20 11:16:55;;;;;;;;;;;8.30;99.90;;;8.06;100.00;95974.00;10560926;28;1979;-77
2022/12/20 11:21:58;;;;;;;;;;;8.40;99.90;;;8.22;100.00;95976.84;10556767;28;2289;-79
2022/12/20 11:27:02;;;;;;;;;;;8.50;99.90;;;7.76;100.00;95974.50;10557453;28;5196;-78
2022/12/20 11:32:04;;;;;;;;;;;8.50;99.90;;;7.89;100.00;95961.75;10558379;28;2607;-79
2022/12/20 11:37:13;;;;;;;;;;;8.70;99.90;;;7.82;100.00;95956.59;10557885;28;1986;-81
2022/12/20 11:42:16;;;;;;;;;;;8.70;99.90;;;8.09;100.00;95936.03;10550908;28;2364;-82
2022/12/20 11:47:28;;;;;;;;;;;8.70;99.90;;;7.99;100.00;95924.41;10545653;28;2350;-83
2022/12/20 11:52:31;;;;;;;;;;;8.70;99.90;;;8.06;100.00;95920.44;10563537;28;2338;-79
2022/12/20 11:57:34;;;;;;;;;;;8.70;99.90;;;8.33;100.00;95899.00;10552073;28;1972;-77
2022/12/20 12:02:59;;;;;;;;;;;8.90;99.90;;;8.03;100.00;95894.19;10551244;28;2271;-80
2022/12/20 12:08:03;;;;;;;;;;;9.00;99.90;;;7.86;100.00;95904.19;10566791;28;1953;-80
2022/12/20 12:13:07;;;;;;;;;;;8.80;99.90;;;7.99;100.00;95903.78;10574753;28;1898;-84
2022/12/20 12:18:11;;;;;;;;;;;8.70;99.90;;;7.87;100.00;95895.09;10568028;28;2461;-83
2022/12/20 12:23:14;;;;;;;;;;;8.60;99.90;;;7.69;100.00;95892.78;10584049;28;2348;-87
2022/12/20 12:28:17;;;;;;;;;;;8.50;99.90;;;7.73;100.00;95891.22;10564913;28;2303;-82
2022/12/20 12:33:19;;;;;;;;;;;8.50;99.90;;;7.61;100.00;95890.56;10577140;28;2073;-84
2022/12/20 12:38:28;;;;;;;;;;;8.50;99.90;;;7.75;100.00;95886.41;10581375;28;2345;-88
2022/12/20 12:43:31;;;;;;;;;;;8.50;99.90;;;7.68;100.00;95891.16;10574768;28;1942;-85
2022/12/20 12:48:34;;;;;;;;;;;8.40;99.90;;;7.82;100.00;95877.16;10577885;28;2303;-85
2022/12/20 12:53:36;;;;;;;;;;;8.40;99.90;;;7.55;100.00;95868.28;10560542;28;1902;-85
2022/12/20 12:58:40;;;;;;;;;;;8.30;99.90;;;7.38;100.00;95865.72;10581756;28;2445;-82
2022/12/20 13:03:50;;;;;;;;;;;8.30;99.90;;;7.14;100.00;95861.69;10564256;28;2348;-81
2022/12/20 13:08:53;;;;;;;;;;;8.20;99.90;;;7.15;100.00;95866.78;10577560;27;2199;-81
2022/12/20 13:13:56;;;;;;;;;;;8.10;99.90;;;7.10;100.00;95868.59;10589257;27;1941;-82
2022/12/20 13:18:58;;;;;;;;;;;8.00;99.90;;;6.74;100.00;95870.81;10579703;27;2324;-84
2022/12/20 13:24:02;;;;;;;;;;;7.80;99.90;;;6.78;100.00;95871.94;10558091;28;1900;-82
2022/12/20 13:29:04;;;;;;;;;;;7.70;99.90;;;7.02;100.00;95873.31;10579322;27;6486;-82
2022/12/20 13:34:07;;;;;;;;;;;7.70;99.90;;;7.07;100.00;95882.47;10578111;27;2347;-78
2022/12/20 13:39:10;;;;;;;;;;;7.80;99.90;;;6.98;100.00;95880.22;10581611;27;2334;-78
2022/12/20 13:44:12;;;;;;;;;;;7.80;99.90;;;6.92;100.00;95885.75;10584900;27;2296;-81
2022/12/20 13:49:19;;;;;;;;;;;7.80;99.90;;;6.75;100.00;95888.47;10575721;27;2023;-80
2022/12/20 13:54:22;;;;;;;;;;;7.70;99.90;;;6.45;100.00;95878.97;10584797;27;2357;-79
2022/12/20 13:59:29;;;;;;;;;;;7.70;99.90;;;5.87;100.00;95877.47;10584437;27;2352;-81
2022/12/20 14:04:31;;;;;;;;;;;7.20;99.90;;;5.58;100.00;95878.56;10577395;27;1922;-81
2022/12/20 14:09:34;;;;;;;;;;;6.90;99.90;;;5.34;100.00;95884.00;10560098;27;2018;-85
2022/12/20 14:14:45;;;;;;;;;;;6.50;99.90;;;5.06;100.00;95865.31;10581425;27;2279;-82
2022/12/20 14:19:51;;;;;;;;;;;6.30;99.90;;;5.22;100.00;95853.91;10572584;27;1879;-78
2022/12/20 14:24:53;;;;;;;;;;;6.30;99.90;;;5.07;100.00;95857.06;10567986;27;2057;-78
2022/12/20 14:29:57;;;;;;;;;;;6.20;99.90;;;4.59;100.00;95841.47;10573428;27;5088;-79
2022/12/20 14:34:59;;;;;;;;;;;6.00;99.90;;;4.48;100.00;95835.09;10562421;28;1964;-79
2022/12/20 14:40:03;;;;;;;;;;;5.80;99.90;;;4.35;100.00;95806.06;10579113;27;2366;-82
2022/12/20 14:45:06;;;;;;;;;;;5.60;99.90;;;4.18;100.00;95829.91;10578078;27;2425;-79
2022/12/20 14:50:09;;;;;;;;;;;5.40;99.90;;;4.15;100.00;95850.88;10572972;27;2346;-81
2022/12/20 14:55:18;;;;;;;;;;;5.30;99.90;;;4.29;100.00;95849.59;10577950;27;1930;-83
2022/12/20 15:00:21;;;;;;;;;;;5.30;99.90;;;4.20;100.00;95846.47;10578911;27;2299;-82
2022/12/20 15:05:24;;;;;;;;;;;5.30;99.90;;;3.87;100.00;95832.91;10585229;27;2297;-81
2022/12/20 15:10:26;;;;;;;;;;;5.10;99.90;;;3.93;100.00;95850.59;10581301;27;2354;-81
2022/12/20 15:15:30;;;;;;;;;;;5.00;99.90;;;3.77;100.00;95847.59;10581817;27;2277;-79
2022/12/20 15:20:32;;;;;;;;;;;4.80;99.90;;;3.64;100.00;95828.38;10571875;27;2396;-79
2022/12/20 15:25:35;;;;;;;;;;;4.70;99.90;;;3.55;100.00;95840.34;10575481;27;2380;-81
2022/12/20 15:30:44;;;;;;;;;;;4.60;99.90;;;3.43;100.00;95819.06;10581415;27;2693;-82
2022/12/20 15:35:47;;;;;;;;;;;4.60;99.90;;;3.46;100.00;95805.34;10578065;27;2372;-84
2022/12/20 15:40:50;;;;;;;;;;;4.50;99.90;;;3.34;100.00;95825.75;10573091;28;2375;-84
2022/12/20 15:45:53;;;;;;;;;;;4.50;99.90;;;3.36;100.00;95827.13;10581877;27;2314;-85
2022/12/20 15:50:56;;;;;;;;;;;4.40;99.90;;;3.39;100.00;95815.25;10572958;27;2253;-84
2022/12/20 15:55:59;;;;;;;;;;;4.50;99.90;;;3.35;100.00;95806.09;10584431;27;1941;-84
2022/12/20 16:01:02;;;;;;;;;;;4.50;99.90;;;3.19;100.00;95821.66;10577952;27;2329;-84
2022/12/20 16:06:05;;;;;;;;;;;4.40;99.90;;;3.32;100.00;95822.53;10572765;28;2278;-83
2022/12/20 16:11:08;;;;;;;;;;;4.40;99.90;;;3.14;100.00;95821.53;10567697;28;2379;-79
2022/12/20 16:16:11;;;;;;;;;;;4.40;99.90;;;3.29;100.00;95828.28;10567158;28;2078;-79
2022/12/20 16:21:14;;;;;;;;;;;4.40;99.90;;;3.32;100.00;95806.56;10567993;28;1976;-81
2022/12/20 16:26:18;;;;;;;;;;;4.40;99.90;;;3.28;100.00;95803.56;10562005;28;5072;-78
2022/12/20 16:31:21;;;;;;;;;;;4.40;99.90;;;3.34;100.00;95817.78;10563085;28;2307;-83
2022/12/20 16:36:24;;;;;;;;;;;4.40;99.90;;;3.47;100.00;95804.28;10565866;28;2350;-83
2022/12/20 16:41:27;;;;;;;;;;;4.40;99.90;;;3.46;100.00;95803.47;10574147;27;2377;-84
2022/12/20 16:46:29;;;;;;;;;;;4.50;99.90;;;3.41;100.00;95802.53;10576717;27;2351;-83
2022/12/20 16:51:32;;;;;;;;;;;4.60;99.90;;;3.51;100.00;95816.09;10580678;28;2392;-82
2022/12/20 16:56:35;;;;;;;;;;;4.50;99.90;;;3.39;100.00;95809.94;10597935;28;2465;-84
2022/12/20 17:01:37;;;;;;;;;;;4.80;99.90;;;3.40;100.00;95814.22;10576235;28;2254;-81
2022/12/20 17:06:40;;;;;;;;;;;4.40;99.90;;;3.37;100.00;95806.69;10572627;28;2621;-86
2022/12/20 17:11:43;;;;;;;;;;;4.30;99.90;;;3.39;100.00;95817.91;10569809;28;2327;-87
2022/12/20 17:16:46;;;;;;;;;;;4.40;99.90;;;3.30;100.00;95808.63;10578152;28;1914;-85
2022/12/20 17:21:50;;;;;;;;;;;4.30;99.90;;;3.34;100.00;95815.13;10572884;28;2359;-80
2022/12/20 17:27:10;;;;;;;;;;;4.30;99.90;;;3.31;100.00;95826.19;10568037;28;5237;-83
2022/12/20 17:32:14;;;;;;;;;;;4.60;99.90;;;3.28;100.00;95821.34;10577152;28;1984;-81
2022/12/20 17:37:17;;;;;;;;;;;4.50;99.90;;;3.30;100.00;95808.63;10574748;27;2350;-83
2022/12/20 17:42:20;;;;;;;;;;;4.20;99.90;;;3.23;100.00;95798.91;10609374;28;2082;-80
2022/12/20 17:47:30;;;;;;;;;;;5.00;99.90;;;3.26;100.00;95802.97;10579419;28;2857;-81
2022/12/20 17:52:33;;;;;;;;;;;4.20;99.90;;;3.25;100.00;95794.19;10567709;28;2383;-81
2022/12/20 17:57:35;;;;;;;;;;;4.30;99.90;;;3.27;100.00;95798.47;10575992;27;2293;-80
2022/12/20 18:02:38;;;;;;;;;;;4.20;99.90;;;3.28;100.00;95810.72;10564542;28;2411;-81
2022/12/20 18:07:40;;;;;;;;;;;4.20;99.90;;;3.25;100.00;95802.16;10568115;28;2348;-81
2022/12/20 18:12:43;;;;;;;;;;;4.20;99.90;;;3.30;100.00;95782.06;10574257;28;2371;-80
2022/12/20 18:17:46;;;;;;;;;;;4.20;99.90;;;3.30;100.00;95792.69;10548032;28;1969;-81
2022/12/20 18:22:49;;;;;;;;;;;4.20;99.90;;;3.27;100.00;95793.97;10564217;28;2554;-82
2022/12/20 18:27:52;;;;;;;;;;;4.20;99.90;;;3.27;100.00;95803.78;10564962;28;4984;-80
2022/12/20 18:32:54;;;;;;;;;;;4.20;99.90;;;3.23;100.00;95819.34;10564238;28;2635;-80
2022/12/20 18:37:57;;;;;;;;;;;4.20;99.90;;;3.16;100.00;95816.78;10563613;27;2115;-80
2022/12/20 18:43:00;;;;;;;;;;;4.20;99.90;;;3.08;100.00;95779.13;10564795;27;2646;-81
2022/12/20 18:48:14;;;;;;;;;;;4.30;99.90;;;3.09;100.00;95796.69;10573461;27;2555;-86
2022/12/20 18:53:17;;;;;;;;;;;4.10;99.90;;;3.00;100.00;95777.59;10568429;27;2159;-81
2022/12/20 18:58:19;;;;;;;;;;;4.10;99.90;;;2.92;100.00;95764.63;10549710;28;2627;-84
2022/12/20 19:03:23;;;;;;;;;;;4.10;99.90;;;2.96;100.00;95773.78;10571057;27;2602;-82
2022/12/20 19:08:26;;;;;;;;;;;4.10;99.90;;;2.92;100.00;95770.75;10569545;27;2638;-82
2022/12/20 19:13:28;;;;;;;;;;;4.00;99.90;;;3.11;100.00;95784.78;10581076;27;2742;-82
2022/12/20 19:18:32;;;;;;;;;;;4.10;99.90;;;3.16;100.00;95784.91;10570490;27;2171;-80
2022/12/20 19:23:35;;;;;;;;;;;4.10;99.90;;;3.23;100.00;95763.56;10579920;27;2622;-85
2022/12/20 19:28:37;;;;;;;;;;;4.20;99.90;;;3.19;100.00;95749.94;10573004;27;2544;-82
2022/12/20 19:33:43;;;;;;;;;;;4.20;99.90;;;3.10;100.00;95743.31;10568668;27;2559;-82
2022/12/20 19:38:46;;;;;;;;;;;4.20;99.90;;;3.03;100.00;95739.97;10569770;27;2581;-81
2022/12/20 19:43:50;;;;;;;;;;;4.30;99.90;;;2.95;100.00;95733.13;10555302;28;2627;-81
2022/12/20 19:48:53;;;;;;;;;;;4.00;99.90;;;2.96;100.00;95718.00;10552174;27;2162;-83
2022/12/20 19:53:56;;;;;;;;;;;4.00;99.90;;;3.07;100.00;95724.41;10568654;27;2614;-84
2022/12/20 19:58:58;;;;;;;;;;;4.40;99.90;;;3.17;100.00;95725.44;10563203;27;2633;-82
2022/12/20 20:04:02;;;;;;;;;;;4.10;99.90;;;3.07;100.00;95711.94;10565393;27;2207;-80
2022/12/20 20:09:05;;;;;;;;;;;4.10;99.90;;;3.17;100.00;95709.50;10572642;27;2622;-81
2022/12/20 20:14:08;;;;;;;;;;;4.10;99.90;;;3.29;100.00;95685.63;10602051;27;2636;-83
2022/12/20 20:19:11;;;;;;;;;;;4.20;99.90;;;3.38;100.00;95683.44;10573590;28;2645;-82
2022/12/20 20:24:14;;;;;;;;;;;4.30;99.90;;;3.37;100.00;95689.78;10566432;28;2650;-82
2022/12/20 20:29:17;;;;;;;;;;;4.80;99.90;;;3.47;100.00;95698.00;10581380;28;5152;-84
2022/12/20 20:34:19;;;;;;;;;;;4.40;99.90;;;3.44;100.00;95695.81;10582326;28;2084;-83
2022/12/20 20:39:22;;;;;;;;;;;4.40;99.90;;;3.33;100.00;95702.72;10583168;28;2083;-84
2022/12/20 20:44:26;;;;;;;;;;;4.40;99.90;;;3.39;100.00;95690.38;10572711;28;2536;-80
2022/12/20 20:49:29;;;;;;;;;;;4.40;99.90;;;3.45;100.00;95678.81;10565928;28;2559;-82
2022/12/20 20:54:31;;;;;;;;;;;4.40;99.90;;;3.53;100.00;95681.94;10565848;28;2531;-83
2022/12/20 20:59:35;;;;;;;;;;;4.40;99.90;;;3.42;100.00;95673.97;10567018;28;2146;-84
2022/12/20 21:04:38;;;;;;;;;;;4.80;99.90;;;3.47;100.00;95664.25;10568393;28;2595;-81
2022/12/20 21:09:40;;;;;;;;;;;4.40;99.90;;;3.65;100.00;95683.78;10556098;28;2599;-80
2022/12/20 21:14:43;;;;;;;;;;;4.60;99.90;;;3.64;100.00;95661.72;10561775;28;2652;-77
2022/12/20 21:20:06;;;;;;;;;;;4.60;99.90;;;3.73;100.00;95676.25;10566766;28;2158;-75
2022/12/20 21:25:14;;;;;;;;;;;4.60;99.90;;;3.65;100.00;95668.63;10562900;28;2611;-75
2022/12/20 21:30:17;;;;;;;;;;;4.60;99.90;;;3.57;100.00;95655.72;10576911;27;5021;-75
2022/12/20 21:35:20;;;;;;;;;;;4.60;99.90;;;3.64;100.00;95651.09;10548842;27;2951;-73
2022/12/20 21:40:23;;;;;;;;;;;4.60;99.90;;;3.55;100.00;95657.78;10569863;27;2615;-77
2022/12/20 21:45:26;;;;;;;;;;;4.60;99.90;;;3.55;100.00;95655.13;10576701;27;2045;-76
2022/12/20 21:50:28;;;;;;;;;;;4.50;99.90;;;3.54;100.00;95682.75;10575713;27;2645;-78
2022/12/20 21:55:31;;;;;;;;;;;4.50;99.90;;;3.46;100.00;95686.56;10559872;27;2654;-78
2022/12/20 22:00:34;;;;;;;;;;;4.50;99.90;;;3.35;100.00;95678.56;10571199;27;2678;-78
2022/12/20 22:05:37;;;;;;;;;;;4.50;99.90;;;3.23;100.00;95676.72;10573219;27;2610;-76
2022/12/20 22:10:39;;;;;;;;;;;4.40;99.90;;;3.20;100.00;95703.75;10567572;27;2629;-74
2022/12/20 22:15:42;;;;;;;;;;;4.40;99.90;;;3.23;100.00;95729.84;10572530;28;2637;-77
2022/12/20 22:20:45;;;;;;;;;;;4.30;99.90;;;3.20;100.00;95729.50;10573748;28;2743;-76
2022/12/20 22:25:47;;;;;;;;;;;4.20;99.90;;;3.14;100.00;95725.91;10573193;27;2558;-79
2022/12/20 22:30:51;;;;;;;;;;;4.20;99.90;;;3.14;100.00;95715.28;10566344;27;5051;-75
2022/12/20 22:35:54;;;;;;;;;;;4.20;99.90;;;3.20;100.00;95709.06;10566954;28;2292;-78
2022/12/20 22:40:58;;;;;;;;;;;4.20;99.90;;;3.21;100.00;95715.19;10569244;27;2587;-80
2022/12/20 22:46:00;;;;;;;;;;;4.20;99.90;;;3.19;100.00;95731.34;10570568;28;2609;-78
2022/12/20 22:51:03;;;;;;;;;;;4.20;99.90;;;3.12;100.00;95714.72;10572708;27;2670;-77
2022/12/20 22:56:08;;;;;;;;;;;4.10;99.90;;;3.07;100.00;95703.16;10557426;27;2190;-76
2022/12/20 23:01:10;;;;;;;;;;;4.20;99.90;;;3.18;100.00;95711.16;10568121;27;2567;-77
2022/12/20 23:06:13;;;;;;;;;;;4.20;99.90;;;3.20;100.00;95690.47;10561133;27;2571;-76
2022/12/20 23:16:37;;;;;;;;;;;2.80;99.90;;;3.10;100.00;95687.56;10551322;27;2586;-77
2022/12/20 23:27:10;;;;;;;;;;;4.10;99.90;;;3.08;100.00;95688.84;10568389;27;5000;-74
2022/12/20 23:32:13;;;;;;;;;;;4.10;99.90;;;3.02;100.00;95695.84;10562380;27;2247;-75
2022/12/20 23:37:16;;;;;;;;;;;4.10;99.90;;;3.14;100.00;95688.72;10562885;27;2691;-77
2022/12/20 23:42:18;;;;;;;;;;;4.10;99.90;;;3.16;100.00;95680.53;10571810;27;2601;-76
2022/12/20 23:47:23;;;;;;;;;;;4.20;99.90;;;3.28;100.00;95683.19;10560541;27;2955;-76
2022/12/20 23:52:26;;;;;;;;;;;4.20;99.90;;;3.25;100.00;95679.16;10555864;28;2632;-75
2022/12/20 23:57:29;;;;;;;;;;;4.20;99.90;;;3.28;100.00;95683.19;10548735;28;2143;-79
